Time;durP1;ratioP1;P1;durP2;ratioP2;P2;SDS_P1;SDS_P2;PMS_P1;PMS_P2;Temp;Humidity;BMP_temperature;BMP_pressure;BME280_temperature;BME280_humidity;BME280_pressure;Samples;Min_cycle;Max_cycle;Signal;HPM_P1;HPM_P2
2022/02/22 00:01:09;;;;;;;2.67;1.90;;;16.40;66.10;;;;;;5055083;28;20133;-21
2022/02/22 00:03:36;;;;;;;2.60;2.25;;;16.40;66.10;;;;;;5055709;28;20040;-21
2022/02/22 00:06:03;;;;;;;2.85;2.20;;;16.40;66.10;;;;;;5056692;28;20091;-21
2022/02/22 00:08:28;;;;;;;3.58;2.10;;;16.50;66.00;;;;;;5074086;28;20055;-21
2022/02/22 00:10:54;;;;;;;3.70;2.05;;;16.40;66.00;;;;;;5062817;28;20044;-21
2022/02/22 00:13:20;;;;;;;3.47;2.08;;;16.40;66.10;;;;;;5055851;28;20132;-21
2022/02/22 00:15:45;;;;;;;2.45;2.10;;;16.40;66.30;;;;;;5054288;28;20094;-21
2022/02/22 00:18:11;;;;;;;2.22;2.03;;;16.40;66.10;;;;;;5058758;28;20056;-21
2022/02/22 00:20:36;;;;;;;2.60;2.17;;;16.50;65.90;;;;;;5054613;28;20537;-20
2022/02/22 00:23:05;;;;;;;3.50;2.55;;;16.40;66.00;;;;;;5064788;28;20071;-22
2022/02/22 00:25:31;;;;;;;2.80;1.98;;;16.50;65.90;;;;;;5075526;28;20055;-22
2022/02/22 00:27:56;;;;;;;2.35;1.80;;;16.50;65.80;;;;;;5060401;28;20049;-21
2022/02/22 00:30:22;;;;;;;3.40;2.25;;;16.50;65.80;;;;;;5055590;28;20053;-21
2022/02/22 00:32:47;;;;;;;2.42;2.22;;;16.50;65.70;;;;;;5055345;28;20453;-21
2022/02/22 00:35:13;;;;;;;4.47;2.05;;;16.50;65.70;;;;;;5059553;28;20060;-21
2022/02/22 00:37:39;;;;;;;2.55;1.92;;;16.40;65.70;;;;;;5058893;28;20041;-21
2022/02/22 00:40:06;;;;;;;2.75;1.70;;;16.50;65.70;;;;;;5074755;28;20127;-21
2022/02/22 00:42:32;;;;;;;1.85;1.63;;;16.40;65.80;;;;;;5059276;28;20036;-21
2022/02/22 00:44:57;;;;;;;2.63;2.03;;;16.40;65.90;;;;;;5054654;28;20049;-21
2022/02/22 00:47:23;;;;;;;2.15;1.92;;;16.40;65.70;;;;;;5055296;28;20040;-21
2022/02/22 00:49:49;;;;;;;2.42;2.22;;;16.40;65.80;;;;;;5055190;28;20118;-21
2022/02/22 00:52:14;;;;;;;2.08;1.75;;;16.40;65.70;;;;;;5055968;28;20063;-20
2022/02/22 00:54:40;;;;;;;2.65;1.70;;;16.40;65.80;;;;;;5057753;28;20076;-21
2022/02/22 00:57:05;;;;;;;2.50;1.80;;;16.40;65.80;;;;;;5053890;28;20409;-21
2022/02/22 00:59:31;;;;;;;2.33;1.88;;;16.40;65.80;;;;;;5056981;28;20775;-21
2022/02/22 01:01:57;;;;;;;2.15;1.52;;;16.40;66.00;;;;;;5066100;28;20037;-21
2022/02/22 01:04:24;;;;;;;1.63;1.50;;;16.40;65.90;;;;;;5054998;28;20048;-20
2022/02/22 01:06:49;;;;;;;3.28;2.05;;;16.40;65.70;;;;;;5064675;28;20470;-21
2022/02/22 01:09:15;;;;;;;2.00;1.80;;;16.30;65.90;;;;;;5067967;28;20080;-21
2022/02/22 01:11:41;;;;;;;2.05;1.67;;;16.30;66.10;;;;;;5064008;28;20104;-21
2022/02/22 01:14:06;;;;;;;3.25;2.03;;;16.30;66.00;;;;;;5062364;28;20045;-23
2022/02/22 01:16:32;;;;;;;2.85;1.70;;;16.30;65.90;;;;;;5054763;28;20041;-21
2022/02/22 01:18:58;;;;;;;2.40;2.20;;;16.30;65.90;;;;;;5054254;28;20417;-21
2022/02/22 01:21:24;;;;;;;2.45;2.15;;;16.30;65.90;;;;;;5055031;28;20125;-22
2022/02/22 01:23:49;;;;;;;2.67;1.90;;;16.30;65.80;;;;;;5061373;28;20052;-21
2022/02/22 01:26:15;;;;;;;2.55;1.65;;;16.30;66.00;;;;;;5054002;28;20464;-21
2022/02/22 01:28:41;;;;;;;1.45;1.35;;;16.30;66.10;;;;;;5055031;28;20048;-21
2022/02/22 01:31:06;;;;;;;1.95;1.70;;;16.30;65.90;;;;;;5055345;28;20040;-22
2022/02/22 01:33:32;;;;;;;3.42;1.70;;;16.30;65.80;;;;;;5058605;28;20394;-21
2022/02/22 01:35:57;;;;;;;1.45;1.35;;;16.30;65.90;;;;;;5064699;28;20059;-22
2022/02/22 01:38:23;;;;;;;2.20;1.98;;;16.30;65.90;;;;;;5064182;28;20492;-22
2022/02/22 01:40:52;;;;;;;1.92;1.83;;;16.30;65.90;;;;;;5059569;28;20098;-21
2022/02/22 01:43:18;;;;;;;1.80;1.50;;;16.30;65.90;;;;;;5065111;28;20052;-21
2022/02/22 01:45:43;;;;;;;2.05;1.80;;;16.30;65.90;;;;;;5069611;28;20048;-21
2022/02/22 01:48:09;;;;;;;2.90;1.67;;;16.30;65.90;;;;;;5067841;28;20045;-21
2022/02/22 01:50:35;;;;;;;2.50;1.67;;;16.30;65.80;;;;;;5058166;28;20044;-21
2022/02/22 01:53:01;;;;;;;3.63;1.88;;;16.30;65.90;;;;;;5061499;28;20056;-21
2022/02/22 01:55:27;;;;;;;1.50;1.30;;;16.30;65.90;;;;;;5058193;28;20053;-21
2022/02/22 01:57:53;;;;;;;1.70;1.60;;;16.30;65.80;;;;;;5058056;28;20131;-21
2022/02/22 02:00:18;;;;;;;1.58;1.48;;;16.30;66.10;;;;;;5057605;28;20044;-21
2022/02/22 02:02:44;;;;;;;1.55;1.45;;;16.30;65.90;;;;;;5058049;28;20524;-20
2022/02/22 02:05:09;;;;;;;1.73;1.63;;;16.20;65.90;;;;;;5056948;28;20062;-21
2022/02/22 02:07:35;;;;;;;1.50;1.40;;;16.30;65.80;;;;;;5065553;28;20049;-21
2022/02/22 02:10:01;;;;;;;2.85;1.92;;;16.30;65.90;;;;;;5057253;28;20051;-21
2022/02/22 02:12:27;;;;;;;1.77;1.20;;;16.20;65.80;;;;;;5057658;28;20045;-21
2022/02/22 02:14:52;;;;;;;1.88;1.65;;;16.30;65.90;;;;;;5057747;28;20044;-21
2022/02/22 02:17:18;;;;;;;1.77;1.52;;;16.30;65.80;;;;;;5057265;28;20482;-21
2022/02/22 02:19:43;;;;;;;2.35;1.90;;;16.30;65.90;;;;;;5057437;28;20068;-20
2022/02/22 02:22:09;;;;;;;2.92;1.60;;;16.20;65.80;;;;;;5059855;28;20123;-21
2022/02/22 02:24:35;;;;;;;1.98;1.58;;;16.20;65.90;;;;;;5062816;28;20080;-21
2022/02/22 02:27:00;;;;;;;1.60;1.50;;;16.20;65.90;;;;;;5056971;28;20410;-21
2022/02/22 02:29:27;;;;;;;1.75;1.48;;;16.30;66.00;;;;;;5057395;28;20052;-21
2022/02/22 02:31:53;;;;;;;2.53;1.58;;;16.20;65.80;;;;;;5065291;28;20048;-20
2022/02/22 02:34:23;;;;;;;1.95;1.70;;;16.20;65.80;;;;;;5076834;28;20105;-20
2022/02/22 02:36:49;;;;;;;2.60;1.70;;;16.20;65.90;;;;;;5075445;28;20052;-21
2022/02/22 02:39:14;;;;;;;1.75;1.33;;;16.20;65.90;;;;;;5068185;28;20175;-22
2022/02/22 02:41:42;;;;;;;2.13;1.35;;;16.20;65.90;;;;;;5067781;28;20037;-21
2022/02/22 02:44:10;;;;;;;2.05;1.55;;;16.30;65.70;;;;;;5055519;28;20498;-21
2022/02/22 02:46:35;;;;;;;3.05;1.42;;;16.30;65.50;;;;;;5064066;28;20072;-22
2022/02/22 02:49:01;;;;;;;2.38;1.65;;;16.30;65.60;;;;;;5064074;28;20097;-21
2022/02/22 02:51:27;;;;;;;1.77;1.58;;;16.20;65.70;;;;;;5077283;28;20444;-21
2022/02/22 02:53:53;;;;;;;1.77;1.42;;;16.20;65.90;;;;;;5065914;28;20047;-21
2022/02/22 02:56:24;;;;;;;2.45;1.70;;;16.30;65.90;;;;;;5068380;28;20468;-21
2022/02/22 02:58:52;;;;;;;2.03;1.40;;;16.20;65.90;;;;;;5063320;28;20564;-21
2022/02/22 03:01:18;;;;;;;2.38;1.80;;;16.20;65.80;;;;;;5069858;28;20065;-21
2022/02/22 03:03:43;;;;;;;2.13;1.30;;;16.30;65.90;;;;;;5060160;28;20048;-21
2022/02/22 03:06:09;;;;;;;2.05;1.40;;;16.20;65.70;;;;;;5056305;28;20606;-22
2022/02/22 03:08:34;;;;;;;1.73;1.35;;;16.20;65.80;;;;;;5076640;28;20048;-20
2022/02/22 03:11:00;;;;;;;2.22;1.50;;;16.20;65.70;;;;;;5064658;28;20049;-21
2022/02/22 03:13:26;;;;;;;2.95;1.20;;;16.20;65.70;;;;;;5066202;28;20409;-20
2022/02/22 03:15:51;;;;;;;1.88;1.50;;;16.20;65.80;;;;;;5056626;28;20049;-21
2022/02/22 03:18:17;;;;;;;1.63;1.42;;;16.20;65.70;;;;;;5055979;28;20198;-21
2022/02/22 03:20:43;;;;;;;2.00;1.70;;;16.20;65.80;;;;;;5056705;28;20510;-21
2022/02/22 03:23:08;;;;;;;1.58;1.48;;;16.30;65.60;;;;;;5058819;28;20040;-20
2022/02/22 03:25:34;;;;;;;2.13;1.63;;;16.20;65.80;;;;;;5058575;28;20045;-21
2022/02/22 03:28:03;;;;;;;2.92;1.52;;;16.30;65.70;;;;;;5056415;28;20124;-21
2022/02/22 03:30:32;;;;;;;2.05;1.40;;;16.30;65.70;;;;;;5055749;28;20049;-21
2022/02/22 03:33:00;;;;;;;3.25;1.70;;;16.20;65.60;;;;;;5057804;28;20485;-20
2022/02/22 03:35:26;;;;;;;1.77;1.52;;;16.30;65.70;;;;;;5068693;28;20041;-21
2022/02/22 03:37:52;;;;;;;1.40;1.27;;;16.20;65.70;;;;;;5057045;28;20049;-22
2022/02/22 03:40:17;;;;;;;1.75;1.55;;;16.20;65.80;;;;;;5062001;28;20049;-21
2022/02/22 03:42:43;;;;;;;2.67;1.73;;;16.20;65.80;;;;;;5072712;28;20100;-20
2022/02/22 03:45:12;;;;;;;2.92;1.60;;;16.30;65.80;;;;;;5070582;28;20061;-21
2022/02/22 03:47:38;;;;;;;1.92;1.30;;;16.30;65.60;;;;;;5055942;28;20041;-21
2022/02/22 03:50:05;;;;;;;2.13;1.17;;;16.20;65.60;;;;;;5055581;28;20048;-22
2022/02/22 03:52:31;;;;;;;2.55;1.48;;;16.20;65.70;;;;;;5055795;28;20534;-20
2022/02/22 03:54:56;;;;;;;2.45;1.60;;;16.20;65.80;;;;;;5062610;28;20048;-21
2022/02/22 03:57:22;;;;;;;2.33;1.40;;;16.20;65.70;;;;;;5070233;28;20048;-20
2022/02/22 03:59:48;;;;;;;1.23;1.10;;;16.20;65.60;;;;;;5058292;28;20040;-21
2022/02/22 04:02:13;;;;;;;2.03;1.30;;;16.30;65.60;;;;;;5075063;28;20049;-20
2022/02/22 04:04:39;;;;;;;2.13;1.40;;;16.30;65.50;;;;;;5073053;28;20115;-20
2022/02/22 04:07:04;;;;;;;1.10;1.00;;;16.30;65.60;;;;;;5055612;28;20383;-22
2022/02/22 04:09:30;;;;;;;1.80;1.55;;;16.20;65.70;;;;;;5062733;28;20131;-20
2022/02/22 04:11:55;;;;;;;2.42;1.50;;;16.20;65.80;;;;;;5066155;28;20611;-21
2022/02/22 04:14:21;;;;;;;1.50;1.40;;;16.10;65.90;;;;;;5055079;28;20033;-20
2022/02/22 04:16:47;;;;;;;1.83;1.67;;;16.20;65.90;;;;;;5055436;28;20130;-21
2022/02/22 04:19:12;;;;;;;2.13;1.50;;;16.20;65.90;;;;;;5054690;28;20082;-21
2022/02/22 04:21:38;;;;;;;1.63;1.42;;;16.20;65.70;;;;;;5055566;28;20052;-22
2022/02/22 04:24:04;;;;;;;1.73;1.40;;;16.20;65.70;;;;;;5065795;28;20075;-23
2022/02/22 04:26:29;;;;;;;1.50;1.40;;;16.20;65.50;;;;;;5057509;28;20053;-21
2022/02/22 04:28:57;;;;;;;1.80;1.25;;;16.20;65.60;;;;;;5062456;28;20101;-21
2022/02/22 04:31:23;;;;;;;2.25;1.35;;;16.20;65.70;;;;;;5067927;28;20041;-20
2022/02/22 04:33:48;;;;;;;1.52;1.35;;;16.20;65.60;;;;;;5065415;28;20050;-20
2022/02/22 04:36:14;;;;;;;1.58;1.10;;;16.10;65.70;;;;;;5062204;28;20048;-20
2022/02/22 04:38:40;;;;;;;1.67;1.27;;;16.20;65.90;;;;;;5064037;28;20520;-21
2022/02/22 04:41:05;;;;;;;1.67;1.30;;;16.10;65.80;;;;;;5063024;28;20131;-21
2022/02/22 04:43:31;;;;;;;1.42;1.20;;;16.10;65.90;;;;;;5061729;28;20498;-21
2022/02/22 04:45:56;;;;;;;1.75;1.30;;;16.20;65.90;;;;;;5064280;28;20044;-20
2022/02/22 04:48:22;;;;;;;1.70;1.20;;;16.10;66.10;;;;;;5063370;28;20043;-21
2022/02/22 04:50:48;;;;;;;1.95;1.27;;;16.10;66.00;;;;;;5062939;28;20535;-20
2022/02/22 04:53:13;;;;;;;2.17;1.30;;;16.10;65.90;;;;;;5062840;28;20032;-25
2022/02/22 04:55:39;;;;;;;2.15;1.40;;;16.20;65.90;;;;;;5064366;28;20591;-21
2022/02/22 04:58:04;;;;;;;1.73;1.20;;;16.10;65.90;;;;;;5064564;28;20043;-21
2022/02/22 05:00:30;;;;;;;1.83;1.27;;;16.10;65.80;;;;;;5064103;28;20148;-21
2022/02/22 05:02:56;;;;;;;1.83;1.30;;;16.10;65.80;;;;;;5070091;28;20036;-21
2022/02/22 05:05:22;;;;;;;2.33;1.60;;;16.10;65.70;;;;;;5064816;28;20056;-21
2022/02/22 05:07:47;;;;;;;1.40;1.00;;;16.10;65.80;;;;;;5066473;28;20059;-21
2022/02/22 05:10:13;;;;;;;1.50;1.10;;;16.10;66.00;;;;;;5067581;28;20063;-21
2022/02/22 05:12:38;;;;;;;1.83;1.20;;;16.10;66.00;;;;;;5065008;28;20044;-22
2022/02/22 05:15:05;;;;;;;1.40;1.13;;;16.10;66.00;;;;;;5067779;28;20106;-21
2022/02/22 05:17:31;;;;;;;1.70;1.38;;;16.10;65.90;;;;;;5064210;28;20075;-21
2022/02/22 05:19:57;;;;;;;1.83;1.40;;;16.10;66.00;;;;;;5068790;28;20049;-20
2022/02/22 05:22:22;;;;;;;2.72;1.20;;;16.10;66.00;;;;;;5064555;28;20137;-21
2022/02/22 05:24:48;;;;;;;1.77;0.90;;;16.10;66.00;;;;;;5072540;28;20040;-22
2022/02/22 05:27:13;;;;;;;2.10;1.25;;;16.10;66.00;;;;;;5072806;28;20275;-21
2022/02/22 05:29:39;;;;;;;1.50;1.30;;;16.10;65.90;;;;;;5068556;28;20089;-21
2022/02/22 05:32:05;;;;;;;1.55;0.90;;;16.00;66.00;;;;;;5063994;28;20056;-21
2022/02/22 05:34:34;;;;;;;1.52;1.10;;;16.10;66.00;;;;;;5069677;28;20068;-21
2022/02/22 05:36:59;;;;;;;1.67;1.10;;;16.10;65.90;;;;;;5076690;28;20135;-21
2022/02/22 05:39:25;;;;;;;1.73;1.33;;;16.10;66.00;;;;;;5072041;28;20065;-21
2022/02/22 05:41:51;;;;;;;1.25;1.10;;;16.10;66.10;;;;;;5072360;28;20060;-21
2022/02/22 05:44:16;;;;;;;1.00;0.90;;;16.10;66.00;;;;;;5057319;28;20057;-21
2022/02/22 05:46:42;;;;;;;0.93;0.80;;;16.10;66.00;;;;;;5062590;28;20074;-21
2022/02/22 05:49:07;;;;;;;1.55;1.00;;;16.10;65.90;;;;;;5060301;28;20571;-20
2022/02/22 05:51:33;;;;;;;1.02;0.90;;;16.10;66.10;;;;;;5071089;28;20059;-21
2022/02/22 05:53:58;;;;;;;1.80;1.20;;;16.00;66.00;;;;;;5071290;28;20052;-21
2022/02/22 05:56:24;;;;;;;1.63;1.30;;;16.00;66.30;;;;;;5075682;28;20055;-21
2022/02/22 05:58:49;;;;;;;2.03;1.20;;;16.00;66.10;;;;;;5066079;28;20052;-21
2022/02/22 06:01:15;;;;;;;1.27;1.13;;;16.10;66.00;;;;;;5065409;28;20508;-21
2022/02/22 06:03:41;;;;;;;1.45;1.35;;;16.00;66.30;;;;;;5064994;28;20106;-20
2022/02/22 06:06:06;;;;;;;1.42;0.90;;;16.00;66.20;;;;;;5069658;28;20121;-21
2022/02/22 06:08:32;;;;;;;1.77;1.20;;;16.00;66.10;;;;;;5062454;28;20107;-20
2022/02/22 06:10:57;;;;;;;4.22;1.65;;;16.00;66.70;;;;;;5075343;28;20051;-21
2022/02/22 06:13:23;;;;;;;1.63;1.27;;;16.10;66.50;;;;;;5066035;28;20124;-21
2022/02/22 06:15:49;;;;;;;4.30;1.17;;;16.10;66.90;;;;;;4713928;28;10000042;-21
2022/02/22 06:18:17;;;;;;;1.80;1.20;;;16.10;66.60;;;;;;5071634;28;20061;-21
2022/02/22 06:20:44;;;;;;;1.40;1.00;;;16.10;66.80;;;;;;5065359;28;20063;-21
2022/02/22 06:23:10;;;;;;;1.75;1.20;;;16.10;66.70;;;;;;5071752;28;20055;-21
2022/02/22 06:25:36;;;;;;;2.08;1.10;;;16.10;66.80;;;;;;5065250;28;20508;-21
2022/02/22 06:28:02;;;;;;;2.42;1.52;;;16.20;66.90;;;;;;5069313;28;20418;-22
2022/02/22 06:30:27;;;;;;;2.20;1.30;;;16.20;67.20;;;;;;5062076;28;20045;-20
2022/02/22 06:32:54;;;;;;;1.25;1.02;;;16.20;67.10;;;;;;5062433;28;20118;-21
2022/02/22 06:35:20;;;;;;;2.60;1.40;;;16.20;67.00;;;;;;5068916;28;20070;-21
2022/02/22 06:37:45;;;;;;;1.80;1.30;;;16.10;66.90;;;;;;5064805;28;20071;-20
2022/02/22 06:40:11;;;;;;;3.72;1.65;;;16.10;67.10;;;;;;5067235;28;20045;-20
2022/02/22 06:42:37;;;;;;;3.28;1.58;;;16.10;67.40;;;;;;5064751;28;20086;-20
2022/02/22 06:45:04;;;;;;;4.95;2.05;;;16.10;67.80;;;;;;5074719;28;20075;-20
2022/02/22 06:47:30;;;;;;;6.00;2.00;;;16.20;67.30;;;;;;5056988;28;20037;-20
2022/02/22 06:49:55;;;;;;;9.35;2.28;;;16.20;67.20;;;;;;5062809;28;20135;-22
2022/02/22 06:52:21;;;;;;;3.53;1.95;;;16.30;67.30;;;;;;5062849;28;20048;-21
2022/02/22 06:54:47;;;;;;;8.60;2.33;;;16.30;67.00;;;;;;5057040;28;20068;-21
2022/02/22 06:57:13;;;;;;;5.70;2.80;;;16.20;67.20;;;;;;5055770;28;20037;-20
2022/02/22 06:59:38;;;;;;;8.10;2.58;;;16.20;67.50;;;;;;5054844;28;20116;-21
2022/02/22 07:02:04;;;;;;;4.38;2.13;;;16.20;67.50;;;;;;5057726;28;20057;-21
2022/02/22 07:04:30;;;;;;;4.60;2.15;;;16.20;67.40;;;;;;5056309;28;20041;-20
2022/02/22 07:06:55;;;;;;;8.75;2.50;;;16.20;67.50;;;;;;5056801;28;20041;-21
2022/02/22 07:09:21;;;;;;;3.00;1.95;;;16.20;67.30;;;;;;5056086;28;20041;-20
2022/02/22 07:11:47;;;;;;;5.60;2.05;;;16.20;67.40;;;;;;5056635;28;20149;-23
2022/02/22 07:14:12;;;;;;;5.20;2.10;;;16.20;67.20;;;;;;5059008;28;20072;-21
2022/02/22 07:16:38;;;;;;;5.90;2.90;;;16.20;67.40;;;;;;5070970;28;20056;-20
2022/02/22 07:19:04;;;;;;;6.78;2.25;;;16.20;67.60;;;;;;5065463;28;20132;-20
2022/02/22 07:21:29;;;;;;;3.70;2.03;;;16.20;67.60;;;;;;5069968;28;20094;-21
2022/02/22 07:23:55;;;;;;;4.63;2.03;;;16.30;67.50;;;;;;5076360;28;20070;-20
2022/02/22 07:26:20;;;;;;;6.15;1.60;;;16.20;67.50;;;;;;5073904;28;20060;-21
2022/02/22 07:28:46;;;;;;;4.57;1.83;;;16.20;67.50;;;;;;5075721;28;20048;-21
2022/02/22 07:31:12;;;;;;;7.45;2.00;;;16.30;67.20;;;;;;5074768;28;20501;-20
2022/02/22 07:33:38;;;;;;;5.03;1.85;;;16.30;67.10;;;;;;5074431;28;20044;-21
2022/02/22 07:36:05;;;;;;;6.18;1.75;;;16.40;67.00;;;;;;5071529;28;20090;-22
2022/02/22 07:38:30;;;;;;;5.97;1.98;;;16.30;67.00;;;;;;5075644;28;20067;-22
2022/02/22 07:40:56;;;;;;;5.72;1.80;;;16.30;67.00;;;;;;5073507;28;20083;-21
2022/02/22 07:43:22;;;;;;;3.35;1.88;;;16.40;66.90;;;;;;5055643;28;20095;-21
2022/02/22 07:45:47;;;;;;;4.55;1.85;;;16.40;66.80;;;;;;5055908;28;20056;-20
2022/02/22 07:48:13;;;;;;;4.88;1.85;;;16.40;66.70;;;;;;5056237;28;20516;-23
2022/02/22 07:50:39;;;;;;;4.20;1.92;;;16.40;66.60;;;;;;5055635;28;20109;-21
2022/02/22 07:53:05;;;;;;;2.72;1.60;;;16.40;66.70;;;;;;5055960;28;20075;-21
2022/02/22 07:55:30;;;;;;;3.30;1.50;;;16.40;66.70;;;;;;5055390;28;20048;-21
2022/02/22 07:57:56;;;;;;;7.50;2.10;;;16.40;66.60;;;;;;5055967;28;20514;-21
2022/02/22 08:00:22;;;;;;;5.22;2.28;;;16.40;66.50;;;;;;5055219;28;20045;-21
2022/02/22 08:02:47;;;;;;;2.45;1.40;;;16.40;66.50;;;;;;5055983;28;20511;-20
2022/02/22 08:05:13;;;;;;;3.58;1.50;;;16.40;66.50;;;;;;5055879;28;20041;-21
2022/02/22 08:07:38;;;;;;;4.35;1.95;;;16.40;66.40;;;;;;5055163;28;20064;-21
2022/02/22 08:10:05;;;;;;;3.00;1.85;;;16.40;66.50;;;;;;5055904;28;20036;-20
2022/02/22 08:12:31;;;;;;;2.17;1.70;;;16.40;66.40;;;;;;5054913;28;20048;-21
2022/02/22 08:14:56;;;;;;;4.35;1.75;;;16.40;66.40;;;;;;5055570;28;20048;-21
2022/02/22 08:17:22;;;;;;;4.03;1.52;;;16.40;66.40;;;;;;5055148;28;20037;-20
2022/02/22 08:19:48;;;;;;;2.95;1.25;;;16.40;66.20;;;;;;5055697;28;20139;-20
2022/02/22 08:22:13;;;;;;;5.07;1.48;;;16.50;66.20;;;;;;5055566;28;20044;-20
2022/02/22 08:24:39;;;;;;;4.00;1.42;;;16.40;66.10;;;;;;5054728;28;20049;-21
2022/02/22 08:27:05;;;;;;;3.10;1.63;;;16.40;66.10;;;;;;5055546;28;20480;-20
2022/02/22 08:29:31;;;;;;;3.42;1.70;;;16.50;66.20;;;;;;5053783;28;20085;-20
2022/02/22 08:31:57;;;;;;;2.03;1.63;;;16.50;66.20;;;;;;5055037;28;20045;-20
2022/02/22 08:34:23;;;;;;;2.88;1.63;;;16.50;66.10;;;;;;5054910;28;20044;-22
2022/02/22 08:36:48;;;;;;;2.92;1.40;;;16.50;65.90;;;;;;5073357;28;20040;-21
2022/02/22 08:39:14;;;;;;;2.38;1.20;;;16.50;65.90;;;;;;5063712;28;20048;-20
2022/02/22 08:41:40;;;;;;;2.67;1.67;;;16.50;65.80;;;;;;5062463;28;20051;-21
2022/02/22 08:44:05;;;;;;;2.83;1.55;;;16.50;65.90;;;;;;5059831;28;20409;-21
2022/02/22 08:46:31;;;;;;;3.45;1.67;;;16.50;65.90;;;;;;5054737;28;20045;-20
2022/02/22 08:48:57;;;;;;;3.80;1.45;;;16.50;65.90;;;;;;5055346;28;20120;-20
2022/02/22 08:51:22;;;;;;;2.80;1.40;;;16.50;65.80;;;;;;5054830;28;20045;-20
2022/02/22 08:53:48;;;;;;;2.15;1.60;;;16.50;66.60;;;;;;5055215;28;20139;-20
2022/02/22 08:56:14;;;;;;;3.17;1.50;;;16.60;65.70;;;;;;5054924;28;20102;-19
2022/02/22 08:58:39;;;;;;;6.63;2.45;;;16.50;65.80;;;;;;5054670;28;20094;-19
2022/02/22 09:01:06;;;;;;;2.85;1.30;;;16.60;65.80;;;;;;5055262;28;20048;-20
2022/02/22 09:03:32;;;;;;;2.05;1.33;;;16.50;65.70;;;;;;5054640;28;20132;-21
2022/02/22 09:05:59;;;;;;;2.40;1.77;;;16.60;65.70;;;;;;5055306;28;20076;-20
2022/02/22 09:08:25;;;;;;;2.15;1.40;;;16.60;65.70;;;;;;5054507;28;20041;-21
2022/02/22 09:10:50;;;;;;;2.28;1.27;;;16.60;65.70;;;;;;5053601;28;20048;-20
2022/02/22 09:13:16;;;;;;;2.17;1.60;;;16.60;65.60;;;;;;5055426;28;20094;-20
2022/02/22 09:15:43;;;;;;;2.42;1.27;;;16.60;65.50;;;;;;5054412;28;20045;-20
2022/02/22 09:18:09;;;;;;;3.70;1.30;;;16.60;65.60;;;;;;5054944;28;20041;-20
2022/02/22 09:20:34;;;;;;;2.10;1.30;;;16.60;65.60;;;;;;5054451;28;20048;-20
2022/02/22 09:23:00;;;;;;;4.00;1.55;;;16.60;65.50;;;;;;5054905;28;20091;-20
2022/02/22 09:25:32;;;;;;;1.95;1.10;;;16.60;65.40;;;;;;5054281;28;20067;-20
2022/02/22 09:27:58;;;;;;;2.75;1.30;;;16.60;65.50;;;;;;5054943;28;20041;-20
2022/02/22 09:30:24;;;;;;;1.40;1.23;;;16.60;65.40;;;;;;5054453;28;20072;-20
2022/02/22 09:32:50;;;;;;;2.25;1.15;;;16.60;66.20;;;;;;5054954;28;20103;-20
2022/02/22 09:35:17;;;;;;;1.70;1.05;;;16.70;65.30;;;;;;5060023;28;20041;-21
2022/02/22 09:37:43;;;;;;;1.50;1.15;;;16.70;65.30;;;;;;5062637;28;20042;-21
2022/02/22 09:40:09;;;;;;;2.00;1.30;;;16.70;65.30;;;;;;5054304;28;20124;-20
2022/02/22 09:42:35;;;;;;;2.72;1.35;;;16.70;65.20;;;;;;5069128;28;20060;-21
2022/02/22 09:45:00;;;;;;;3.30;1.20;;;16.70;65.20;;;;;;5074886;28;20048;-22
2022/02/22 09:47:26;;;;;;;1.85;1.10;;;16.70;65.20;;;;;;5074334;28;20040;-21
2022/02/22 09:49:52;;;;;;;1.63;1.27;;;16.70;65.30;;;;;;5073518;28;20076;-20
2022/02/22 09:52:17;;;;;;;2.33;1.27;;;16.70;65.20;;;;;;5075833;28;20127;-20
2022/02/22 09:54:43;;;;;;;1.45;0.93;;;16.70;65.10;;;;;;5067244;28;20374;-20
2022/02/22 09:57:09;;;;;;;1.20;1.10;;;16.70;65.10;;;;;;5056599;28;20052;-20
2022/02/22 09:59:35;;;;;;;2.92;1.00;;;16.70;65.00;;;;;;5057734;28;20053;-20
2022/02/22 10:02:01;;;;;;;1.30;1.20;;;16.70;65.10;;;;;;5058314;28;20331;-21
2022/02/22 10:04:26;;;;;;;1.77;1.33;;;16.70;65.10;;;;;;5057747;28;20274;-20
2022/02/22 10:07:01;;;;;;;2.58;1.05;;;16.70;65.10;;;;;;5057977;28;20045;-21
2022/02/22 10:09:26;;;;;;;1.50;1.20;;;16.80;65.00;;;;;;5057502;28;20041;-22
2022/02/22 10:11:53;;;;;;;2.22;1.10;;;16.70;65.00;;;;;;5057832;28;20107;-21
2022/02/22 10:14:29;;;;;;;1.30;1.20;;;16.80;64.90;;;;;;5069339;28;20048;-21
2022/02/22 10:16:55;;;;;;;1.70;0.95;;;16.80;65.00;;;;;;5077357;28;20067;-22
2022/02/22 10:19:23;;;;;;;1.08;0.98;;;16.80;65.00;;;;;;5065452;28;20115;-21
2022/02/22 10:21:56;;;;;;;1.83;0.98;;;16.70;65.00;;;;;;5057071;28;20514;-20
2022/02/22 10:24:23;;;;;;;2.08;1.30;;;16.80;64.90;;;;;;5057762;28;20041;-20
2022/02/22 10:26:57;;;;;;;1.23;1.00;;;16.80;65.00;;;;;;5070011;28;20056;-21
2022/02/22 10:29:25;;;;;;;1.23;1.00;;;16.80;64.90;;;;;;5077682;28;20044;-20
2022/02/22 10:31:51;;;;;;;1.08;0.80;;;16.80;64.80;;;;;;5077032;28;20064;-21
2022/02/22 10:34:16;;;;;;;1.67;1.05;;;16.80;64.80;;;;;;5061882;28;20134;-20
2022/02/22 10:36:43;;;;;;;1.33;0.77;;;16.80;65.00;;;;;;5073103;28;20825;-21
2022/02/22 10:39:10;;;;;;;1.88;0.90;;;16.80;64.80;;;;;;5077265;28;20044;-21
2022/02/22 10:41:38;;;;;;;1.10;0.80;;;16.80;64.90;;;;;;5076467;28;20037;-20
2022/02/22 10:44:04;;;;;;;1.20;0.80;;;16.80;64.70;;;;;;5077453;28;20056;-21
2022/02/22 10:46:32;;;;;;;0.90;0.90;;;16.90;64.70;;;;;;5070757;28;20045;-22
2022/02/22 10:49:01;;;;;;;1.10;0.98;;;16.90;64.80;;;;;;5057388;28;20056;-21
2022/02/22 10:51:32;;;;;;;1.27;0.90;;;16.90;64.70;;;;;;5057365;28;20045;-21
2022/02/22 10:53:58;;;;;;;1.27;0.80;;;16.90;64.70;;;;;;5056724;28;20059;-21
2022/02/22 10:56:23;;;;;;;1.33;0.70;;;16.90;64.70;;;;;;5056843;28;20041;-20
2022/02/22 10:58:49;;;;;;;1.40;0.70;;;16.90;64.70;;;;;;5055373;28;20049;-20
2022/02/22 11:01:16;;;;;;;1.27;0.95;;;16.90;64.50;;;;;;5057062;28;20497;-21
2022/02/22 11:03:44;;;;;;;1.05;0.70;;;17.00;64.50;;;;;;5055853;28;20080;-21
2022/02/22 11:06:10;;;;;;;1.90;1.02;;;17.00;64.50;;;;;;5056986;28;20094;-20
2022/02/22 11:08:39;;;;;;;1.50;0.82;;;17.00;64.30;;;;;;5056157;28;20387;-21
2022/02/22 11:11:07;;;;;;;1.42;0.95;;;17.00;64.30;;;;;;5055403;28;20060;-21
2022/02/22 11:13:32;;;;;;;0.95;0.77;;;17.00;64.30;;;;;;5056160;28;20071;-20
2022/02/22 11:16:17;;;;;;;1.00;0.85;;;17.00;64.30;;;;;;5056274;28;20045;-21
2022/02/22 11:18:50;;;;;;;1.52;0.98;;;17.00;64.30;;;;;;5055873;28;20064;-21
2022/02/22 11:21:17;;;;;;;1.63;0.70;;;17.00;64.40;;;;;;5056759;28;20068;-20
2022/02/22 11:23:43;;;;;;;0.80;0.80;;;17.00;64.30;;;;;;5055900;28;20052;-21
2022/02/22 11:26:13;;;;;;;0.80;0.70;;;17.00;64.30;;;;;;5057520;28;20049;-20
2022/02/22 11:28:43;;;;;;;1.63;1.02;;;17.00;64.20;;;;;;5057777;28;20053;-21
2022/02/22 11:31:11;;;;;;;1.67;0.70;;;17.10;64.20;;;;;;5056473;28;20044;-20
2022/02/22 11:33:50;;;;;;;1.00;0.60;;;17.10;64.10;;;;;;5059333;28;20098;-21
2022/02/22 11:36:29;;;;;;;1.10;0.57;;;17.10;64.20;;;;;;5076121;28;20063;-20
2022/02/22 11:38:55;;;;;;;1.15;0.75;;;17.10;64.20;;;;;;5073666;28;20055;-20
2022/02/22 11:41:23;;;;;;;1.27;0.80;;;17.10;64.20;;;;;;5061830;28;20509;-20
2022/02/22 11:44:02;;;;;;;0.88;0.80;;;17.10;64.10;;;;;;5072823;28;20202;-20
2022/02/22 11:46:34;;;;;;;1.02;0.85;;;17.10;64.20;;;;;;5056266;28;20041;-20
2022/02/22 11:49:05;;;;;;;1.00;0.63;;;17.10;64.10;;;;;;5055645;28;20147;-20
2022/02/22 11:51:44;;;;;;;0.90;0.70;;;17.10;64.10;;;;;;5055994;28;20574;-20
2022/02/22 11:54:30;;;;;;;1.10;0.70;;;17.10;64.00;;;;;;5055584;28;20045;-20
2022/02/22 11:57:12;;;;;;;0.95;0.88;;;17.10;63.90;;;;;;5053811;28;20076;-20
2022/02/22 11:59:53;;;;;;;0.80;0.73;;;17.10;64.10;;;;;;5055252;28;20440;-20
2022/02/22 12:02:32;;;;;;;0.55;0.50;;;17.20;64.10;;;;;;5069749;28;20040;-19
2022/02/22 12:05:21;;;;;;;0.93;0.82;;;17.20;64.00;;;;;;5063753;28;20051;-20
2022/02/22 12:07:56;;;;;;;0.95;0.80;;;17.20;64.00;;;;;;5075113;28;20050;-19
2022/02/22 12:10:23;;;;;;;0.88;0.63;;;17.20;64.00;;;;;;5074432;28;20075;-20
2022/02/22 12:12:51;;;;;;;1.05;0.63;;;17.20;64.00;;;;;;5075064;28;20044;-20
2022/02/22 12:15:16;;;;;;;0.80;0.70;;;17.20;64.00;;;;;;5074998;28;20051;-20
2022/02/22 12:17:43;;;;;;;0.60;0.60;;;17.20;63.90;;;;;;5074797;28;20048;-20
2022/02/22 12:20:09;;;;;;;1.38;0.65;;;17.20;63.90;;;;;;5071943;28;20128;-20
2022/02/22 12:22:36;;;;;;;0.85;0.82;;;17.20;63.90;;;;;;5054972;28;20130;-20
2022/02/22 12:25:05;;;;;;;0.95;0.80;;;17.20;63.90;;;;;;5054046;28;20440;-20
2022/02/22 12:27:33;;;;;;;0.75;0.55;;;17.20;63.90;;;;;;5059081;28;20052;-20
2022/02/22 12:29:59;;;;;;;1.08;0.60;;;17.20;63.90;;;;;;5059375;28;20725;-20
2022/02/22 12:32:26;;;;;;;0.82;0.80;;;17.20;64.00;;;;;;5067402;28;20147;-19
2022/02/22 12:34:56;;;;;;;0.93;0.50;;;17.20;64.00;;;;;;5061018;28;20041;-20
2022/02/22 12:37:23;;;;;;;0.63;0.55;;;17.20;63.90;;;;;;5075277;28;20056;-20
2022/02/22 12:39:49;;;;;;;0.60;0.50;;;17.20;64.00;;;;;;4719481;28;10000411;-21
2022/02/22 12:42:17;;;;;;;0.55;0.52;;;17.30;64.00;;;;;;5063558;28;20052;-20